Time;durP1;ratioP1;P1;durP2;ratioP2;P2;SDS_P1;SDS_P2;PMS_P1;PMS_P2;Temp;Humidity;BMP_temperature;BMP_pressure;BME280_temperature;BME280_humidity;BME280_pressure;Samples;Min_cycle;Max_cycle;Signal;HPM_P1;HPM_P2
2023/02/28 00:00:47;;;;;;;9.07;5.55;;;0.10;1.00;;;;;;5106399;28;20459;-61
2023/02/28 00:03:16;;;;;;;9.48;4.90;;;0.00;1.00;;;;;;5103415;28;20455;-61
2023/02/28 00:05:42;;;;;;;8.48;5.32;;;0.10;1.00;;;;;;5098998;28;20417;-61
2023/02/28 00:08:09;;;;;;;8.05;4.85;;;0.10;1.00;;;;;;5104822;28;20420;-61
2023/02/28 00:10:36;;;;;;;7.50;5.00;;;0.10;1.00;;;;;;5101598;28;20472;-61
2023/02/28 00:13:05;;;;;;;8.25;4.72;;;0.00;1.00;;;;;;5109774;28;20412;-61
2023/02/28 00:15:33;;;;;;;9.70;4.70;;;0.20;1.00;;;;;;5105627;28;20405;-61
2023/02/28 00:18:00;;;;;;;7.45;4.70;;;0.30;1.00;;;;;;5105772;28;20416;-61
2023/02/28 00:20:28;;;;;;;9.18;4.90;;;0.40;1.00;;;;;;5100902;28;20467;-61
2023/02/28 00:22:55;;;;;;;7.18;4.78;;;0.30;1.00;;;;;;5105017;28;20412;-61
2023/02/28 00:25:24;;;;;;;8.40;4.75;;;0.30;1.00;;;;;;5103313;28;20409;-61
2023/02/28 00:27:51;;;;;;;7.60;4.30;;;0.30;1.00;;;;;;5106351;28;20420;-61
2023/02/28 00:30:19;;;;;;;6.57;4.60;;;0.30;1.00;;;;;;5099195;28;20409;-61
2023/02/28 00:32:46;;;;;;;8.05;4.70;;;0.00;1.00;;;;;;5106582;28;20412;-61
2023/02/28 00:35:13;;;;;;;6.60;4.82;;;-0.10;1.00;;;;;;5106201;28;20406;-60
2023/02/28 00:37:41;;;;;;;7.45;5.50;;;-0.10;1.00;;;;;;5106055;28;20429;-61
2023/02/28 00:40:11;;;;;;;8.38;4.90;;;-0.20;1.00;;;;;;5098626;28;20402;-61
2023/02/28 00:42:38;;;;;;;7.63;5.13;;;-0.20;1.00;;;;;;5102568;27;20414;-61
2023/02/28 00:45:05;;;;;;;6.75;4.60;;;-0.30;1.00;;;;;;5110378;28;20412;-61
2023/02/28 00:47:32;;;;;;;6.73;4.63;;;-0.30;1.00;;;;;;5098732;28;20882;-61
2023/02/28 00:49:59;;;;;;;8.02;4.60;;;-0.30;1.00;;;;;;5103362;28;20484;-61
2023/02/28 00:52:25;;;;;;;8.80;5.15;;;-0.40;1.00;;;;;;5101109;28;20416;-61
2023/02/28 00:54:53;;;;;;;8.38;4.85;;;-0.40;1.00;;;;;;5085183;28;20442;-61
2023/02/28 00:57:20;;;;;;;8.80;5.00;;;-0.50;1.00;;;;;;5106732;28;20396;-61
2023/02/28 00:59:46;;;;;;;7.60;4.70;;;-0.50;1.00;;;;;;5107647;28;20414;-61
2023/02/28 01:02:13;;;;;;;6.65;4.45;;;-0.40;1.00;;;;;;5106519;28;20463;-61
2023/02/28 01:04:40;;;;;;;9.43;4.95;;;-0.50;1.00;;;;;;5107084;28;20443;-62
2023/02/28 01:07:06;;;;;;;8.67;4.53;;;-0.50;1.00;;;;;;5103549;28;20533;-61
2023/02/28 01:09:33;;;;;;;6.53;4.90;;;-0.50;1.00;;;;;;5100599;28;20898;-61
2023/02/28 01:12:01;;;;;;;6.70;4.73;;;-0.50;1.00;;;;;;5104576;28;20465;-62
2023/02/28 01:14:27;;;;;;;7.40;4.68;;;-0.30;1.00;;;;;;5101863;28;20467;-61
2023/02/28 01:16:54;;;;;;;6.45;4.60;;;-0.20;1.00;;;;;;5104377;28;20408;-61
2023/02/28 01:19:21;;;;;;;6.93;4.40;;;-0.10;1.00;;;;;;5108291;28;20413;-61
2023/02/28 01:21:47;;;;;;;7.85;4.97;;;0.00;1.00;;;;;;5093203;28;20969;-61
2023/02/28 01:24:14;;;;;;;6.17;4.47;;;0.10;1.00;;;;;;5095837;28;20409;-61
2023/02/28 01:26:40;;;;;;;8.55;5.10;;;0.20;1.00;;;;;;5102917;28;20410;-61
2023/02/28 01:29:09;;;;;;;6.55;4.30;;;0.20;1.00;;;;;;5104560;28;20412;-61
2023/02/28 01:31:35;;;;;;;6.57;4.60;;;0.20;1.00;;;;;;5100354;28;20412;-61
2023/02/28 01:34:02;;;;;;;6.90;4.72;;;0.30;1.00;;;;;;5100661;28;20414;-61
2023/02/28 01:36:29;;;;;;;7.97;5.05;;;0.30;1.00;;;;;;5098745;28;20414;-61
2023/02/28 01:38:56;;;;;;;7.10;4.85;;;0.30;1.00;;;;;;5106440;28;20406;-60
2023/02/28 01:41:26;;;;;;;8.23;5.07;;;0.30;1.00;;;;;;5104159;28;20824;-60
2023/02/28 01:44:03;;;;;;;7.28;4.88;;;0.20;99.90;;;;;;5102541;28;20957;-61
2023/02/28 01:46:32;;;;;;;9.02;4.90;;;0.20;99.90;;;;;;5096881;28;20491;-61
2023/02/28 01:49:04;;;;;;;6.20;4.82;;;0.20;1.00;;;;;;5099519;28;20422;-61
2023/02/28 01:51:38;;;;;;;8.60;4.90;;;0.20;1.00;;;;;;5100179;28;20412;-61
2023/02/28 01:54:13;;;;;;;7.13;4.68;;;0.20;99.90;;;;;;5103494;28;20408;-61
2023/02/28 01:56:42;;;;;;;6.72;4.65;;;0.10;99.90;;;;;;5103065;28;20415;-61
2023/02/28 01:59:09;;;;;;;7.23;4.80;;;0.10;99.90;;;;;;5097834;28;20401;-61
2023/02/28 02:01:37;;;;;;;6.97;4.68;;;0.20;99.90;;;;;;5105452;28;20410;-61
2023/02/28 02:04:04;;;;;;;6.72;4.53;;;0.10;99.90;;;;;;5103520;28;20408;-60
2023/02/28 02:06:36;;;;;;;6.88;5.00;;;0.10;99.90;;;;;;5098873;28;20412;-61
2023/02/28 02:09:03;;;;;;;7.25;4.85;;;0.00;99.90;;;;;;5100017;28;20426;-61
2023/02/28 02:11:30;;;;;;;8.07;5.50;;;0.00;99.90;;;;;;5102136;28;20412;-61
2023/02/28 02:14:21;;;;;;;8.68;5.40;;;-0.20;1.00;;;;;;5107403;28;20422;-61
2023/02/28 02:17:05;;;;;;;7.38;5.03;;;-0.20;1.00;;;;;;5094366;28;20417;-61
2023/02/28 02:19:55;;;;;;;8.50;4.97;;;-0.20;1.00;;;;;;5093125;28;20940;-61
2023/02/28 02:23:02;;;;;;;7.38;4.85;;;-0.20;1.00;;;;;;5096576;28;20436;-61
2023/02/28 02:25:35;;;;;;;8.23;4.97;;;-0.20;1.00;;;;;;5099841;28;20420;-61
2023/02/28 02:28:47;;;;;;;7.05;4.80;;;-0.30;1.00;;;;;;5103274;28;20426;-61
2023/02/28 02:32:02;;;;;;;7.50;4.68;;;-0.40;1.00;;;;;;5102648;28;20404;-61
2023/02/28 02:34:50;;;;;;;8.52;5.30;;;-0.50;1.00;;;;;;5066714;28;20782;-61
2023/02/28 02:37:31;;;;;;;7.60;4.90;;;-0.50;1.00;;;;;;5090520;28;20483;-61
2023/02/28 02:40:04;;;;;;;7.47;4.75;;;-0.60;1.00;;;;;;5102322;28;20883;-60
2023/02/28 02:42:40;;;;;;;7.05;4.80;;;-0.90;1.00;;;;;;5099539;28;20410;-63
2023/02/28 02:45:10;;;;;;;7.95;5.20;;;-1.20;1.00;;;;;;5100225;28;20725;-61
2023/02/28 02:47:39;;;;;;;7.03;4.60;;;-1.40;1.00;;;;;;5091700;28;20424;-63
2023/02/28 02:50:13;;;;;;;6.60;4.88;;;-1.30;1.00;;;;;;5100363;28;20412;-61
2023/02/28 02:52:45;;;;;;;8.40;5.10;;;-1.40;1.00;;;;;;5097135;28;20482;-61
2023/02/28 02:55:15;;;;;;;7.38;5.28;;;-1.50;1.00;;;;;;5102674;28;20548;-61
2023/02/28 02:57:47;;;;;;;8.50;5.38;;;-1.30;1.00;;;;;;5098538;28;20400;-61
2023/02/28 03:00:18;;;;;;;9.55;5.45;;;-1.40;1.00;;;;;;5103088;28;20422;-61
2023/02/28 03:02:46;;;;;;;9.18;5.22;;;-1.60;1.00;;;;;;5100768;28;20527;-61
2023/02/28 03:05:20;;;;;;;9.48;5.50;;;-1.70;1.00;;;;;;5101926;28;20416;-61
2023/02/28 03:07:46;;;;;;;8.93;5.30;;;-1.70;10.80;;;;;;5101643;28;20515;-61
2023/02/28 03:10:34;;;;;;;9.95;4.93;;;-1.70;16.80;;;;;;5103516;28;20408;-61
2023/02/28 03:13:37;;;;;;;7.90;5.30;;;-1.60;20.20;;;;;;5103458;28;20416;-61
2023/02/28 03:16:23;;;;;;;9.97;5.60;;;-1.60;11.80;;;;;;5085366;28;20481;-61
2023/02/28 03:18:59;;;;;;;7.80;5.30;;;-1.70;10.20;;;;;;5103146;28;20408;-61
2023/02/28 03:21:34;;;;;;;9.40;4.90;;;-1.70;13.30;;;;;;5097821;28;20448;-61
2023/02/28 03:24:07;;;;;;;7.18;4.80;;;-1.70;15.90;;;;;;5095675;28;20412;-61
2023/02/28 03:26:39;;;;;;;9.32;5.30;;;-1.70;18.70;;;;;;5101739;28;20410;-60
2023/02/28 03:29:16;;;;;;;7.47;5.17;;;-1.60;16.70;;;;;;5097979;28;20951;-61
2023/02/28 03:31:47;;;;;;;7.47;4.90;;;-1.50;10.60;;;;;;5092114;28;20515;-61
2023/02/28 03:34:19;;;;;;;8.50;4.82;;;-1.40;5.30;;;;;;5103373;28;20428;-61
2023/02/28 03:36:51;;;;;;;10.00;4.70;;;-1.30;1.00;;;;;;5099934;28;20410;-61
2023/02/28 03:39:21;;;;;;;7.85;4.80;;;-1.20;1.00;;;;;;5096187;28;20402;-61
2023/02/28 03:41:56;;;;;;;7.40;4.72;;;-1.10;1.00;;;;;;5099459;28;20885;-61
2023/02/28 03:44:25;;;;;;;8.25;5.18;;;-1.10;1.00;;;;;;5095761;28;20459;-61
2023/02/28 03:46:57;;;;;;;11.07;5.60;;;-1.30;1.00;;;;;;5101528;28;20412;-61
2023/02/28 03:49:28;;;;;;;7.57;5.10;;;-1.50;1.00;;;;;;5096610;28;20470;-61
2023/02/28 03:51:58;;;;;;;9.30;5.70;;;-1.70;1.00;;;;;;5101879;28;20413;-60
2023/02/28 03:54:30;;;;;;;9.55;5.18;;;-1.80;1.00;;;;;;5102956;28;20408;-62
2023/02/28 03:57:03;;;;;;;7.03;5.07;;;-1.80;1.00;;;;;;5091814;28;20410;-62
2023/02/28 03:59:33;;;;;;;9.20;5.03;;;-1.90;5.80;;;;;;5098953;28;20458;-62
2023/02/28 04:02:00;;;;;;;7.72;5.03;;;-1.90;7.40;;;;;;5090915;28;20890;-62
2023/02/28 04:04:27;;;;;;;7.50;5.13;;;-1.90;5.20;;;;;;5098047;28;20408;-62
2023/02/28 04:07:04;;;;;;;8.87;4.93;;;-2.00;6.20;;;;;;5101964;28;21030;-62
2023/02/28 04:09:31;;;;;;;9.18;5.10;;;-1.80;7.00;;;;;;5101072;28;20471;-62
2023/02/28 04:11:57;;;;;;;7.57;5.05;;;-1.90;6.30;;;;;;5105875;28;20485;-62
2023/02/28 04:14:24;;;;;;;7.97;5.03;;;-1.70;5.30;;;;;;5108834;28;20436;-62
2023/02/28 04:16:52;;;;;;;9.35;5.07;;;-1.80;1.00;;;;;;5098929;28;20417;-62
2023/02/28 04:19:19;;;;;;;9.32;4.80;;;-1.90;1.00;;;;;;5100103;28;20413;-62
2023/02/28 04:21:48;;;;;;;7.70;4.55;;;-1.90;1.80;;;;;;5097835;28;20467;-62
2023/02/28 04:24:17;;;;;;;7.72;4.63;;;-2.00;1.70;;;;;;5101264;28;20414;-62
2023/02/28 04:26:46;;;;;;;6.40;4.75;;;-2.00;4.30;;;;;;5098462;28;20455;-62
2023/02/28 04:29:14;;;;;;;7.22;4.57;;;-2.10;7.10;;;;;;5102077;28;20420;-63
2023/02/28 04:31:41;;;;;;;7.10;5.32;;;-2.10;10.10;;;;;;5100589;28;20410;-62
2023/02/28 04:34:08;;;;;;;6.53;4.85;;;-2.10;11.60;;;;;;5104536;28;20956;-62
2023/02/28 04:36:35;;;;;;;6.93;4.53;;;-2.20;11.60;;;;;;5101370;28;20538;-62
2023/02/28 04:39:02;;;;;;;7.07;5.20;;;-2.10;12.90;;;;;;5106160;28;20426;-62
2023/02/28 04:41:30;;;;;;;7.50;4.97;;;-2.20;15.90;;;;;;5104191;28;20500;-62
2023/02/28 04:43:56;;;;;;;8.02;5.32;;;-2.10;17.00;;;;;;5101979;28;20466;-62
2023/02/28 04:46:24;;;;;;;7.75;5.20;;;-2.10;13.20;;;;;;5104928;28;20783;-63
2023/02/28 04:48:50;;;;;;;7.07;5.28;;;-2.20;14.70;;;;;;5104844;28;20419;-62
2023/02/28 04:51:19;;;;;;;7.13;4.95;;;-2.20;16.80;;;;;;5103744;28;20931;-62
2023/02/28 04:53:46;;;;;;;7.22;5.10;;;-2.30;19.30;;;;;;5104318;28;20416;-62
2023/02/28 04:56:14;;;;;;;8.32;5.10;;;-2.30;20.60;;;;;;5102088;28;20460;-62
2023/02/28 04:58:43;;;;;;;9.07;5.28;;;-2.30;21.80;;;;;;5103312;28;20880;-62
2023/02/28 05:01:22;;;;;;;8.35;5.30;;;-2.30;21.60;;;;;;5104847;28;20417;-62
2023/02/28 05:03:50;;;;;;;7.68;4.90;;;-2.30;20.40;;;;;;5102075;28;20467;-62
2023/02/28 05:06:17;;;;;;;5.90;4.72;;;-2.30;20.00;;;;;;5096914;28;20884;-61
2023/02/28 05:08:44;;;;;;;7.33;5.00;;;-2.30;18.70;;;;;;5103460;28;20786;-62
2023/02/28 05:11:16;;;;;;;7.20;4.70;;;-2.30;18.80;;;;;;5101695;28;20546;-61
2023/02/28 05:13:44;;;;;;;7.53;5.00;;;-2.40;19.60;;;;;;5100131;28;20778;-61
2023/02/28 05:16:11;;;;;;;8.55;5.20;;;-2.40;22.60;;;;;;5105527;28;20408;-62
2023/02/28 05:18:38;;;;;;;8.40;5.85;;;-2.50;23.50;;;;;;5105340;28;20397;-61
2023/02/28 05:21:04;;;;;;;7.90;5.37;;;-2.40;25.50;;;;;;5104351;28;20598;-62
2023/02/28 05:23:31;;;;;;;8.20;5.37;;;-2.50;29.00;;;;;;5104319;28;20420;-60
2023/02/28 05:25:58;;;;;;;7.15;5.10;;;-2.50;29.80;;;;;;5104053;28;20410;-62
2023/02/28 05:28:25;;;;;;;8.10;4.97;;;-2.50;31.50;;;;;;5101097;28;20422;-62
2023/02/28 05:30:53;;;;;;;8.10;5.45;;;-2.50;32.00;;;;;;5103078;28;20474;-62
2023/02/28 05:33:20;;;;;;;7.55;5.38;;;-2.50;31.90;;;;;;5100407;28;20414;-62
2023/02/28 05:35:46;;;;;;;8.38;5.88;;;-2.40;32.40;;;;;;5101757;28;20409;-62
2023/02/28 05:38:13;;;;;;;9.23;5.93;;;-2.50;31.60;;;;;;5102120;28;20465;-64
2023/02/28 05:40:40;;;;;;;8.23;5.82;;;-2.50;32.00;;;;;;5106751;28;20408;-62
2023/02/28 05:43:09;;;;;;;8.93;5.72;;;-2.50;33.70;;;;;;5102490;28;20956;-62
2023/02/28 05:45:36;;;;;;;7.60;5.50;;;-2.50;32.70;;;;;;5100946;28;20418;-62
2023/02/28 05:48:05;;;;;;;8.02;5.75;;;-2.50;34.40;;;;;;5102910;28;20489;-62
2023/02/28 05:50:31;;;;;;;7.38;5.72;;;-2.60;37.50;;;;;;5103042;28;20457;-62
2023/02/28 05:52:58;;;;;;;8.25;5.60;;;-2.60;39.40;;;;;;5102441;28;20413;-62
2023/02/28 05:55:25;;;;;;;8.52;6.03;;;-2.50;40.90;;;;;;5106014;28;20467;-62
2023/02/28 05:57:51;;;;;;;7.72;5.97;;;-2.50;39.60;;;;;;5100230;28;20436;-62
2023/02/28 06:00:19;;;;;;;9.45;6.32;;;-2.50;38.80;;;;;;5102174;28;20415;-60
2023/02/28 06:02:45;;;;;;;9.10;6.32;;;-2.60;38.50;;;;;;5103762;28;20457;-62
2023/02/28 06:05:16;;;;;;;8.88;5.72;;;-2.60;40.50;;;;;;5101073;28;20406;-62
2023/02/28 06:07:44;;;;;;;11.05;6.13;;;-2.60;42.00;;;;;;5100858;28;20425;-62
2023/02/28 06:10:12;;;;;;;10.07;6.75;;;-2.60;41.80;;;;;;5091950;28;20416;-62
2023/02/28 06:12:39;;;;;;;9.95;5.70;;;-2.60;41.70;;;;;;5102770;28;20408;-61
2023/02/28 06:15:06;;;;;;;8.63;6.20;;;-2.60;43.30;;;;;;5100798;28;20486;-59
2023/02/28 06:17:33;;;;;;;7.90;5.75;;;-2.50;42.40;;;;;;5104852;28;20459;-62
2023/02/28 06:20:00;;;;;;;8.48;6.20;;;-2.50;40.90;;;;;;5104107;28;20791;-63
2023/02/28 06:22:28;;;;;;;10.27;6.32;;;-2.50;38.10;;;;;;5104424;28;20499;-62
2023/02/28 06:24:54;;;;;;;9.93;6.65;;;-2.60;35.20;;;;;;5097206;28;20405;-63
2023/02/28 06:27:21;;;;;;;8.50;5.88;;;-2.60;37.70;;;;;;5102902;28;20531;-60
2023/02/28 06:29:48;;;;;;;10.70;6.38;;;-2.60;40.40;;;;;;5102938;28;21037;-63
2023/02/28 06:32:15;;;;;;;9.30;5.85;;;-2.40;41.10;;;;;;5102939;28;20419;-63
2023/02/28 06:34:41;;;;;;;8.48;6.20;;;-2.20;37.20;;;;;;5101181;28;20463;-63
2023/02/28 06:37:08;;;;;;;9.45;6.22;;;-2.10;30.80;;;;;;5100626;28;20406;-63
2023/02/28 06:39:36;;;;;;;9.98;6.25;;;-2.00;26.20;;;;;;5102897;28;20400;-62
2023/02/28 06:42:03;;;;;;;11.18;5.93;;;-1.80;20.00;;;;;;5101438;28;20409;-61
2023/02/28 06:44:34;;;;;;;9.98;5.60;;;-1.70;12.10;;;;;;5100276;28;20410;-61
2023/02/28 06:47:02;;;;;;;9.73;6.35;;;-1.70;3.20;;;;;;5101444;28;20786;-62
2023/02/28 06:49:29;;;;;;;11.02;6.03;;;-1.70;1.00;;;;;;5102574;28;20424;-62
2023/02/28 06:51:55;;;;;;;8.50;6.22;;;-1.60;1.00;;;;;;5100186;28;20943;-62
2023/02/28 06:54:22;;;;;;;9.18;6.28;;;-1.50;1.00;;;;;;5100012;28;20425;-61
2023/02/28 06:56:50;;;;;;;8.63;5.80;;;-1.50;1.00;;;;;;5103544;28;20408;-62
2023/02/28 06:59:17;;;;;;;8.52;5.90;;;-1.50;1.00;;;;;;5101037;28;20414;-62
2023/02/28 07:01:44;;;;;;;8.20;5.72;;;-1.50;1.00;;;;;;5098989;28;20445;-62
2023/02/28 07:04:10;;;;;;;9.35;6.53;;;-1.60;1.00;;;;;;5101602;28;20412;-63
2023/02/28 07:06:37;;;;;;;8.35;6.07;;;-2.00;1.00;;;;;;5103859;28;20516;-63
2023/02/28 07:09:04;;;;;;;9.18;5.88;;;-2.20;1.00;;;;;;5103513;28;20427;-62
2023/02/28 07:11:31;;;;;;;9.98;5.70;;;-2.00;1.00;;;;;;5102039;28;20451;-60
2023/02/28 07:13:59;;;;;;;7.90;5.25;;;-1.90;1.00;;;;;;5101352;28;20426;-63
2023/02/28 07:16:27;;;;;;;8.00;5.45;;;-1.90;1.00;;;;;;5102715;28;20416;-62
2023/02/28 07:18:54;;;;;;;6.30;5.18;;;-1.90;1.00;;;;;;5095117;28;20427;-63
2023/02/28 07:21:21;;;;;;;9.63;5.70;;;-2.00;1.00;;;;;;5102185;28;20473;-63
2023/02/28 07:23:48;;;;;;;7.28;5.35;;;-1.90;1.00;;;;;;5104813;28;20411;-62
2023/02/28 07:26:16;;;;;;;9.60;5.40;;;-1.90;1.00;;;;;;5099055;28;20466;-63
2023/02/28 07:28:44;;;;;;;6.70;5.20;;;-1.80;1.00;;;;;;5100308;28;20895;-62
2023/02/28 07:31:13;;;;;;;7.75;5.25;;;-1.70;1.00;;;;;;5101771;28;20404;-62
2023/02/28 07:33:40;;;;;;;6.35;5.10;;;-1.70;1.00;;;;;;5100555;28;20846;-62
2023/02/28 07:36:09;;;;;;;8.68;5.25;;;-1.70;1.00;;;;;;5102569;28;20412;-63
2023/02/28 07:38:37;;;;;;;8.70;5.13;;;-1.50;1.00;;;;;;5099722;28;20972;-61
2023/02/28 07:41:05;;;;;;;5.90;4.90;;;-0.90;1.00;;;;;;5099528;28;20417;-62
2023/02/28 07:43:32;;;;;;;6.57;4.38;;;-1.40;1.00;;;;;;5090635;28;20484;-62
2023/02/28 07:46:03;;;;;;;6.47;4.57;;;-1.30;1.00;;;;;;5097814;28;20413;-62
2023/02/28 07:48:31;;;;;;;8.30;4.55;;;-1.20;1.00;;;;;;5099112;28;20424;-62
2023/02/28 07:50:59;;;;;;;5.85;4.20;;;-1.20;1.00;;;;;;5101613;28;20420;-63
2023/02/28 07:53:26;;;;;;;6.57;4.40;;;-1.20;1.00;;;;;;5102042;28;20412;-62
2023/02/28 07:55:55;;;;;;;7.38;4.32;;;-1.10;1.00;;;;;;5100445;28;20412;-62
2023/02/28 07:58:22;;;;;;;5.83;4.03;;;-1.10;99.90;;;;;;5098726;28;20439;-62
2023/02/28 08:00:49;;;;;;;9.07;4.70;;;-1.10;99.90;;;;;;5099706;28;20414;-62
2023/02/28 08:03:16;;;;;;;6.80;4.47;;;-1.10;1.00;;;;;;5099350;28;20421;-62
2023/02/28 08:05:44;;;;;;;7.93;4.72;;;-1.00;99.90;;;;;;5105813;28;20465;-62
2023/02/28 08:08:10;;;;;;;6.43;3.90;;;-0.80;99.90;;;;;;5104447;28;20605;-61
2023/02/28 08:10:37;;;;;;;10.73;4.75;;;-0.80;99.90;;;;;;5106258;28;20478;-62
2023/02/28 08:13:04;;;;;;;5.82;4.07;;;-0.60;99.90;;;;;;5103655;28;20776;-61
2023/02/28 08:15:31;;;;;;;6.18;4.10;;;-0.50;99.90;;;;;;5103111;28;20479;-62
2023/02/28 08:17:58;;;;;;;7.55;4.40;;;-0.50;99.90;;;;;;5102758;28;20482;-62
2023/02/28 08:20:25;;;;;;;6.53;4.50;;;-0.60;99.90;;;;;;5103037;28;20407;-62
2023/02/28 08:22:53;;;;;;;7.07;4.50;;;-0.50;99.90;;;;;;5106351;28;20882;-61
2023/02/28 08:25:19;;;;;;;6.88;4.50;;;-0.60;99.90;;;;;;5104459;28;20412;-61
2023/02/28 08:27:46;;;;;;;5.95;4.28;;;-0.60;99.90;;;;;;5105056;28;20412;-61
2023/02/28 08:30:15;;;;;;;5.25;3.97;;;-0.60;99.90;;;;;;5103167;28;20421;-61
2023/02/28 08:32:42;;;;;;;6.60;4.27;;;-0.50;61.70;;;;;;5103386;28;20474;-60
2023/02/28 08:35:10;;;;;;;6.15;4.05;;;-0.50;1.00;;;;;;5109516;28;20400;-61
2023/02/28 08:37:36;;;;;;;10.63;4.63;;;-0.50;1.00;;;;;;5104643;28;20467;-61
2023/02/28 08:40:06;;;;;;;6.53;4.70;;;-0.50;1.00;;;;;;5102666;28;20813;-61
2023/02/28 08:42:33;;;;;;;7.25;4.53;;;-0.40;1.00;;;;;;5105343;28;20756;-61
2023/02/28 08:45:00;;;;;;;8.55;4.82;;;-0.30;99.90;;;;;;5101346;28;20489;-61
2023/02/28 08:47:26;;;;;;;8.00;4.47;;;-0.50;1.00;;;;;;5104696;28;20465;-61
2023/02/28 08:49:53;;;;;;;8.00;4.57;;;0.20;1.00;;;;;;5104122;28;20514;-63
2023/02/28 08:52:20;;;;;;;6.53;4.28;;;0.20;99.90;;;;;;5100614;28;20414;-63
2023/02/28 08:54:47;;;;;;;8.07;4.25;;;0.30;99.90;;;;;;5104277;28;20826;-63
2023/02/28 08:57:15;;;;;;;6.03;4.10;;;0.30;99.90;;;;;;5102429;28;20816;-63
2023/02/28 08:59:42;;;;;;;6.23;4.07;;;0.20;1.00;;;;;;5102028;28;20467;-63
2023/02/28 09:02:10;;;;;;;7.45;4.15;;;0.40;99.90;;;;;;5102272;28;20416;-63
2023/02/28 09:04:37;;;;;;;6.20;4.32;;;0.50;99.90;;;;;;5102147;28;20425;-63
2023/02/28 09:07:03;;;;;;;6.43;4.53;;;0.60;41.70;;;;;;5105806;28;20402;-63
2023/02/28 09:09:30;;;;;;;6.63;3.83;;;0.70;99.90;;;;;;5105286;28;20424;-63
2023/02/28 09:11:58;;;;;;;6.13;3.65;;;0.80;1.00;;;;;;5100520;28;20468;-62
2023/02/28 09:14:26;;;;;;;7.03;4.20;;;1.00;1.00;;;;;;5100626;28;20473;-63
2023/02/28 09:16:52;;;;;;;5.45;3.80;;;1.20;1.00;;;;;;5097226;28;20406;-62
2023/02/28 09:19:19;;;;;;;6.35;3.80;;;1.30;99.90;;;;;;5105764;28;20457;-63
2023/02/28 09:21:46;;;;;;;7.18;3.70;;;1.40;99.90;;;;;;5101098;28;20424;-63
2023/02/28 09:24:14;;;;;;;6.03;3.75;;;1.40;99.90;;;;;;5103068;28;20408;-63
2023/02/28 09:26:41;;;;;;;7.97;4.00;;;1.60;53.90;;;;;;5103774;28;20467;-61
2023/02/28 09:29:08;;;;;;;7.55;3.75;;;1.90;50.20;;;;;;5101323;28;20414;-63
2023/02/28 09:31:36;;;;;;;6.45;3.63;;;2.00;1.00;;;;;;5102256;28;20433;-63
2023/02/28 09:34:04;;;;;;;5.13;3.05;;;2.00;1.00;;;;;;5100279;28;20756;-63
2023/02/28 09:36:31;;;;;;;9.30;3.85;;;1.80;1.00;;;;;;5099885;28;20885;-62
2023/02/28 09:38:57;;;;;;;4.85;3.42;;;1.70;1.00;;;;;;5099955;28;20416;-61
2023/02/28 09:41:27;;;;;;;3.78;3.22;;;1.80;1.00;;;;;;5102229;28;20412;-62
2023/02/28 09:43:57;;;;;;;5.78;3.50;;;2.00;1.00;;;;;;5101635;28;20417;-62
2023/02/28 09:46:31;;;;;;;4.32;3.45;;;2.20;1.00;;;;;;5099245;28;20886;-61
2023/02/28 09:49:02;;;;;;;5.40;3.00;;;2.30;99.90;;;;;;5103572;28;20891;-61
2023/02/28 09:51:38;;;;;;;6.63;3.20;;;2.30;99.90;;;;;;5101884;28;21279;-62
2023/02/28 09:54:05;;;;;;;9.55;3.85;;;2.30;99.90;;;;;;5100150;28;20415;-62
2023/02/28 09:56:36;;;;;;;3.85;3.00;;;2.40;99.90;;;;;;5102877;28;20404;-62
2023/02/28 09:59:11;;;;;;;8.68;3.40;;;2.20;99.90;;;;;;5098144;28;20402;-62
2023/02/28 10:01:44;;;;;;;3.13;2.42;;;2.30;99.90;;;;;;5104288;28;20408;-62
2023/02/28 10:04:19;;;;;;;4.55;2.88;;;2.40;99.90;;;;;;5099417;28;20892;-62
2023/02/28 10:06:49;;;;;;;3.47;2.80;;;2.50;99.90;;;;;;5098241;28;20459;-62
2023/02/28 10:09:20;;;;;;;3.83;2.73;;;2.50;99.90;;;;;;5104810;28;20908;-62
2023/02/28 10:11:48;;;;;;;6.03;2.70;;;2.70;99.90;;;;;;5098754;28;20429;-62
2023/02/28 10:14:18;;;;;;;6.43;2.88;;;2.80;99.90;;;;;;5100654;28;20417;-62
2023/02/28 10:16:51;;;;;;;13.95;3.50;;;2.80;99.90;;;;;;5098277;28;20515;-62
2023/02/28 10:19:24;;;;;;;3.35;2.42;;;2.90;99.90;;;;;;5100816;28;20414;-62
2023/02/28 10:21:57;;;;;;;3.60;2.50;;;2.80;99.90;;;;;;5107040;28;20416;-61
2023/02/28 10:24:29;;;;;;;24.67;4.65;;;2.80;99.90;;;;;;5097148;28;20477;-62
2023/02/28 10:27:01;;;;;;;4.93;2.67;;;3.00;99.90;;;;;;5108923;28;20413;-62
2023/02/28 10:29:29;;;;;;;4.03;2.22;;;2.90;99.90;;;;;;5111899;28;20408;-61
2023/02/28 10:31:57;;;;;;;8.43;3.05;;;2.80;99.90;;;;;;5105792;28;20400;-61
2023/02/28 10:34:25;;;;;;;4.43;2.47;;;2.70;99.90;;;;;;5100760;28;20535;-62
2023/02/28 10:36:52;;;;;;;12.98;3.80;;;3.00;99.90;;;;;;5100640;28;20439;-62
2023/02/28 10:39:40;;;;;;;3.17;2.20;;;3.20;99.90;;;;;;5102878;28;20947;-61
2023/02/28 10:42:21;;;;;;;16.90;3.93;;;3.20;99.90;;;;;;5097744;28;20413;-60
2023/02/28 10:44:48;;;;;;;15.20;3.75;;;3.40;99.90;;;;;;5098495;28;20842;-62
2023/02/28 10:47:17;;;;;;;2.40;1.83;;;3.60;99.90;;;;;;5107367;28;20470;-62
2023/02/28 10:49:52;;;;;;;2.72;2.20;;;3.40;99.90;;;;;;5107966;28;20409;-61
2023/02/28 10:52:37;;;;;;;14.63;3.40;;;3.30;99.90;;;;;;5101649;28;20415;-61
2023/02/28 10:55:22;;;;;;;21.75;4.78;;;3.60;99.90;;;;;;5098992;28;20402;-62
2023/02/28 10:57:49;;;;;;;2.20;1.67;;;3.80;99.90;;;;;;5100231;28;20434;-62
2023/02/28 11:00:18;;;;;;;3.78;2.10;;;3.50;99.90;;;;;;5103782;28;20888;-62
2023/02/28 11:02:46;;;;;;;48.37;7.77;;;3.40;99.90;;;;;;5104308;28;20472;-62
2023/02/28 11:05:29;;;;;;;14.07;3.58;;;3.30;99.90;;;;;;5102233;28;20768;-61
2023/02/28 11:08:05;;;;;;;3.83;2.85;;;3.60;99.90;;;;;;5096751;28;21311;-61
2023/02/28 11:10:34;;;;;;;2.42;1.77;;;3.00;99.90;;;;;;5098885;28;20971;-60
2023/02/28 11:13:02;;;;;;;3.70;2.15;;;2.90;99.90;;;;;;5101279;28;20851;-61
2023/02/28 11:15:31;;;;;;;21.55;4.80;;;3.00;99.90;;;;;;5099612;28;20418;-61
2023/02/28 11:18:01;;;;;;;10.23;2.83;;;3.20;99.90;;;;;;5100822;28;20407;-61
2023/02/28 11:20:31;;;;;;;4.25;2.40;;;3.40;99.90;;;;;;5101961;28;20404;-61
2023/02/28 11:23:01;;;;;;;7.68;2.63;;;3.70;99.90;;;;;;5098164;28;20410;-61
2023/02/28 11:25:32;;;;;;;5.95;2.40;;;3.70;99.90;;;;;;5099132;28;20414;-61
2023/02/28 11:28:00;;;;;;;9.95;2.97;;;3.80;99.90;;;;;;5100535;28;20408;-63
2023/02/28 11:30:34;;;;;;;3.17;2.10;;;3.80;99.90;;;;;;5101557;28;20970;-62
2023/02/28 11:33:01;;;;;;;2.40;2.00;;;3.70;99.90;;;;;;5101343;28;20487;-61
2023/02/28 11:35:34;;;;;;;4.47;2.03;;;3.80;99.90;;;;;;5099537;28;20409;-62
2023/02/28 11:38:01;;;;;;;2.78;1.77;;;3.70;99.90;;;;;;5098922;28;20421;-62
2023/02/28 11:40:42;;;;;;;4.28;2.25;;;3.20;99.90;;;;;;5101643;28;20416;-62
2023/02/28 11:43:19;;;;;;;4.35;2.60;;;3.10;99.90;;;;;;5102265;28;20790;-62
2023/02/28 11:46:00;;;;;;;4.45;2.30;;;2.90;99.90;;;;;;5101422;28;20457;-61
2023/02/28 11:48:30;;;;;;;3.88;2.60;;;2.90;99.90;;;;;;5099160;28;20902;-61
2023/02/28 11:51:11;;;;;;;3.63;2.50;;;3.10;99.90;;;;;;5093336;28;20430;-61
2023/02/28 11:54:10;;;;;;;5.10;2.53;;;3.30;99.90;;;;;;5099141;28;20410;-60
2023/02/28 11:56:40;;;;;;;3.95;2.20;;;3.60;99.90;;;;;;5053512;28;20471;-62
2023/02/28 11:59:27;;;;;;;2.50;2.00;;;3.70;99.90;;;;;;5096162;28;20405;-61
2023/02/28 12:02:17;;;;;;;4.05;2.40;;;3.60;99.90;;;;;;5096934;28;20398;-60
2023/02/28 12:04:55;;;;;;;3.42;2.33;;;3.60;99.90;;;;;;5098739;28;20488;-61
2023/02/28 12:07:32;;;;;;;4.53;2.07;;;3.80;99.90;;;;;;5097406;28;20434;-61
2023/02/28 12:10:06;;;;;;;4.55;2.40;;;4.10;99.90;;;;;;5095690;28;20409;-61
2023/02/28 12:12:45;;;;;;;3.40;2.30;;;4.10;99.90;;;;;;5099017;28;20477;-62
2023/02/28 12:15:33;;;;;;;3.22;2.40;;;4.20;99.90;;;;;;5099429;28;20421;-60
2023/02/28 12:18:12;;;;;;;3.88;2.47;;;4.30;99.90;;;;;;5100379;28;20411;-61
2023/02/28 12:20:46;;;;;;;2.78;2.15;;;4.40;99.90;;;;;;5099641;28;20867;-61
2023/02/28 12:23:47;;;;;;;3.60;2.42;;;4.60;99.90;;;;;;5097721;28;21039;-62
2023/02/28 12:26:20;;;;;;;3.03;1.98;;;4.80;99.90;;;;;;5097297;28;20412;-60
2023/02/28 12:28:51;;;;;;;2.85;2.13;;;4.80;99.90;;;;;;5101053;28;20778;-61
2023/02/28 12:31:23;;;;;;;3.45;2.58;;;4.40;99.90;;;;;;5095599;28;20425;-60
2023/02/28 12:33:54;;;;;;;3.35;2.20;;;4.50;99.90;;;;;;5097428;28;21461;-63
2023/02/28 12:36:23;;;;;;;2.75;2.30;;;4.40;99.90;;;;;;5095030;28;20414;-62
2023/02/28 12:38:56;;;;;;;2.25;2.05;;;4.40;99.90;;;;;;5096191;28;20921;-69
2023/02/28 12:41:30;;;;;;;3.37;2.30;;;4.30;99.90;;;;;;5093700;28;20410;-68
2023/02/28 12:44:02;;;;;;;3.63;2.45;;;4.30;99.90;;;;;;5098550;28;20410;-62
2023/02/28 12:46:33;;;;;;;7.20;3.50;;;5.00;99.90;;;;;;5098275;28;20488;-62
2023/02/28 12:49:05;;;;;;;4.30;3.00;;;4.60;99.90;;;;;;5092834;28;20409;-65
2023/02/28 12:51:33;;;;;;;5.10;2.58;;;4.60;99.90;;;;;;5101218;28;20430;-65
2023/02/28 12:54:10;;;;;;;3.07;2.40;;;4.60;99.90;;;;;;5102055;28;20469;-64
2023/02/28 12:56:42;;;;;;;;;;;4.40;99.90;;;;;;5103914;28;20298;-64
2023/02/28 12:59:12;;;;;;;;;;;4.10;99.90;;;;;;5103958;28;19959;-64
2023/02/28 13:01:57;;;;;;;;;;;4.30;99.90;;;;;;5099335;28;19926;-61
2023/02/28 13:04:43;;;;;;;;;;;4.50;99.90;;;;;;5071382;28;20370;-63
2023/02/28 13:07:16;;;;;;;;;;;4.40;99.90;;;;;;5088777;28;19920;-62
2023/02/28 13:09:52;;;;;;;;;;;4.60;99.90;;;;;;5100576;28;19977;-63
2023/02/28 13:12:20;;;;;;;;;;;4.60;99.90;;;;;;5104647;28;19920;-61
2023/02/28 13:14:47;;;;;;;;;;;4.70;99.90;;;;;;5099218;28;19924;-60